sensor_id;sensor_type;location;lat;lon;timestamp;P1;durP1;ratioP1;P2;durP2;ratioP2
76094;SDS011;64821;13.710;100.604;2023-12-20T00:01:21;9.75;;;5.05;;
76094;SDS011;64821;13.710;100.604;2023-12-20T00:02:40;9.93;;;5.30;;
76094;SDS011;64821;13.710;100.604;2023-12-20T00:03:44;11.17;;;5.70;;
76094;SDS011;64821;13.710;100.604;2023-12-20T00:04:58;10.45;;;5.30;;
76094;SDS011;64821;13.710;100.604;2023-12-20T00:06:25;8.98;;;5.30;;
76094;SDS011;64821;13.710;100.604;2023-12-20T00:07:31;9.25;;;5.05;;
76094;SDS011;64821;13.710;100.604;2023-12-20T00:08:35;9.25;;;5.32;;
76094;SDS011;64821;13.710;100.604;2023-12-20T00:09:39;12.97;;;5.70;;
76094;SDS011;64821;13.710;100.604;2023-12-20T00:10:43;10.32;;;5.97;;
76094;SDS011;64821;13.710;100.604;2023-12-20T00:11:47;10.50;;;6.05;;
76094;SDS011;64821;13.710;100.604;2023-12-20T00:12:58;9.57;;;4.95;;
76094;SDS011;64821;13.710;100.604;2023-12-20T00:14:29;9.02;;;5.18;;
76094;SDS011;64821;13.710;100.604;2023-12-20T00:15:33;10.43;;;5.30;;
76094;SDS011;64821;13.710;100.604;2023-12-20T00:16:37;10.77;;;5.32;;
76094;SDS011;64821;13.710;100.604;2023-12-20T00:17:41;9.80;;;5.88;;
76094;SDS011;64821;13.710;100.604;2023-12-20T00:19:01;9.15;;;5.28;;
76094;SDS011;64821;13.710;100.604;2023-12-20T00:20:23;10.15;;;5.45;;
76094;SDS011;64821;13.710;100.604;2023-12-20T00:21:27;9.97;;;5.30;;
76094;SDS011;64821;13.710;100.604;2023-12-20T00:22:32;9.70;;;5.25;;
76094;SDS011;64821;13.710;100.604;2023-12-20T00:23:36;9.52;;;5.65;;
76094;SDS011;64821;13.710;100.604;2023-12-20T00:24:40;10.55;;;5.32;;
76094;SDS011;64821;13.710;100.604;2023-12-20T00:25:44;9.63;;;5.40;;
76094;SDS011;64821;13.710;100.604;2023-12-20T00:26:48;9.30;;;5.43;;
76094;SDS011;64821;13.710;100.604;2023-12-20T00:28:01;10.35;;;5.72;;
76094;SDS011;64821;13.710;100.604;2023-12-20T00:29:05;10.68;;;6.88;;
76094;SDS011;64821;13.710;100.604;2023-12-20T00:30:10;10.27;;;5.60;;
76094;SDS011;64821;13.710;100.604;2023-12-20T00:31:14;9.88;;;5.70;;
76094;SDS011;64821;13.710;100.604;2023-12-20T00:32:18;11.63;;;6.23;;
76094;SDS011;64821;13.710;100.604;2023-12-20T00:33:22;9.68;;;5.80;;
76094;SDS011;64821;13.710;100.604;2023-12-20T00:34:27;9.85;;;5.63;;
76094;SDS011;64821;13.710;100.604;2023-12-20T00:35:31;10.90;;;6.78;;
76094;SDS011;64821;13.710;100.604;2023-12-20T00:36:35;11.40;;;7.35;;
76094;SDS011;64821;13.710;100.604;2023-12-20T00:37:41;9.50;;;5.30;;
76094;SDS011;64821;13.710;100.604;2023-12-20T00:40:30;11.48;;;6.18;;
76094;SDS011;64821;13.710;100.604;2023-12-20T00:41:34;9.80;;;6.10;;
76094;SDS011;64821;13.710;100.604;2023-12-20T00:42:38;10.90;;;6.40;;
76094;SDS011;64821;13.710;100.604;2023-12-20T00:43:42;12.60;;;6.73;;
76094;SDS011;64821;13.710;100.604;2023-12-20T00:44:46;11.93;;;6.50;;
76094;SDS011;64821;13.710;100.604;2023-12-20T00:45:50;10.95;;;5.88;;
76094;SDS011;64821;13.710;100.604;2023-12-20T00:46:54;14.02;;;7.50;;
76094;SDS011;64821;13.710;100.604;2023-12-20T00:47:59;9.45;;;5.63;;
76094;SDS011;64821;13.710;100.604;2023-12-20T00:49:03;9.10;;;5.40;;
76094;SDS011;64821;13.710;100.604;2023-12-20T00:50:08;10.52;;;5.60;;
76094;SDS011;64821;13.710;100.604;2023-12-20T00:51:12;11.73;;;5.70;;
76094;SDS011;64821;13.710;100.604;2023-12-20T00:52:30;10.88;;;6.28;;
76094;SDS011;64821;13.710;100.604;2023-12-20T00:53:53;8.85;;;5.45;;
76094;SDS011;64821;13.710;100.604;2023-12-20T00:54:57;9.37;;;4.90;;
76094;SDS011;64821;13.710;100.604;2023-12-20T00:56:01;9.75;;;5.00;;
76094;SDS011;64821;13.710;100.604;2023-12-20T00:57:06;10.10;;;5.78;;
76094;SDS011;64821;13.710;100.604;2023-12-20T00:58:18;11.68;;;5.78;;
76094;SDS011;64821;13.710;100.604;2023-12-20T00:59:22;10.68;;;5.70;;
76094;SDS011;64821;13.710;100.604;2023-12-20T01:00:26;10.53;;;5.80;;
76094;SDS011;64821;13.710;100.604;2023-12-20T01:01:57;10.50;;;5.82;;
76094;SDS011;64821;13.710;100.604;2023-12-20T01:03:04;10.35;;;5.13;;
76094;SDS011;64821;13.710;100.604;2023-12-20T01:04:08;10.55;;;5.13;;
76094;SDS011;64821;13.710;100.604;2023-12-20T01:05:12;9.70;;;4.90;;
76094;SDS011;64821;13.710;100.604;2023-12-20T01:06:20;11.07;;;5.07;;
76094;SDS011;64821;13.710;100.604;2023-12-20T01:07:27;10.27;;;5.10;;
76094;SDS011;64821;13.710;100.604;2023-12-20T01:08:31;9.50;;;5.15;;
76094;SDS011;64821;13.710;100.604;2023-12-20T01:09:37;10.75;;;5.47;;
76094;SDS011;64821;13.710;100.604;2023-12-20T01:10:50;8.90;;;4.80;;
76094;SDS011;64821;13.710;100.604;2023-12-20T01:11:54;10.17;;;5.10;;
76094;SDS011;64821;13.710;100.604;2023-12-20T01:12:58;8.25;;;4.50;;
76094;SDS011;64821;13.710;100.604;2023-12-20T01:14:02;11.15;;;4.90;;
76094;SDS011;64821;13.710;100.604;2023-12-20T01:15:14;9.70;;;5.03;;
76094;SDS011;64821;13.710;100.604;2023-12-20T01:16:18;10.55;;;5.20;;
76094;SDS011;64821;13.710;100.604;2023-12-20T01:17:23;11.87;;;5.13;;
76094;SDS011;64821;13.710;100.604;2023-12-20T01:18:27;9.40;;;4.70;;
76094;SDS011;64821;13.710;100.604;2023-12-20T01:19:40;8.80;;;4.57;;
76094;SDS011;64821;13.710;100.604;2023-12-20T01:20:44;9.43;;;4.70;;
76094;SDS011;64821;13.710;100.604;2023-12-20T01:21:48;9.32;;;4.80;;
76094;SDS011;64821;13.710;100.604;2023-12-20T01:22:52;11.53;;;5.13;;
76094;SDS011;64821;13.710;100.604;2023-12-20T01:24:08;10.50;;;4.70;;
76094;SDS011;64821;13.710;100.604;2023-12-20T01:25:13;9.05;;;4.55;;
76094;SDS011;64821;13.710;100.604;2023-12-20T01:26:18;9.30;;;4.63;;
76094;SDS011;64821;13.710;100.604;2023-12-20T01:27:22;10.02;;;4.32;;
76094;SDS011;64821;13.710;100.604;2023-12-20T01:28:52;9.53;;;4.90;;
76094;SDS011;64821;13.710;100.604;2023-12-20T01:30:14;8.35;;;4.40;;
76094;SDS011;64821;13.710;100.604;2023-12-20T01:31:23;10.13;;;4.80;;
76094;SDS011;64821;13.710;100.604;2023-12-20T01:32:41;8.50;;;4.55;;
76094;SDS011;64821;13.710;100.604;2023-12-20T01:33:49;9.18;;;4.55;;
76094;SDS011;64821;13.710;100.604;2023-12-20T01:34:53;8.33;;;4.07;;
76094;SDS011;64821;13.710;100.604;2023-12-20T01:36:02;9.73;;;4.78;;
76094;SDS011;64821;13.710;100.604;2023-12-20T01:37:17;10.27;;;4.80;;
76094;SDS011;64821;13.710;100.604;2023-12-20T01:38:21;8.88;;;4.40;;
76094;SDS011;64821;13.710;100.604;2023-12-20T01:39:25;11.25;;;4.80;;
76094;SDS011;64821;13.710;100.604;2023-12-20T01:40:32;9.90;;;5.13;;
76094;SDS011;64821;13.710;100.604;2023-12-20T01:43:06;9.15;;;4.70;;
76094;SDS011;64821;13.710;100.604;2023-12-20T01:44:11;8.45;;;4.57;;
76094;SDS011;64821;13.710;100.604;2023-12-20T01:45:15;8.95;;;4.47;;
76094;SDS011;64821;13.710;100.604;2023-12-20T01:46:25;8.27;;;4.10;;
76094;SDS011;64821;13.710;100.604;2023-12-20T01:47:29;9.38;;;4.20;;
76094;SDS011;64821;13.710;100.604;2023-12-20T01:48:34;10.30;;;4.28;;
76094;SDS011;64821;13.710;100.604;2023-12-20T01:49:38;10.32;;;4.85;;
76094;SDS011;64821;13.710;100.604;2023-12-20T01:50:43;10.40;;;4.50;;
76094;SDS011;64821;13.710;100.604;2023-12-20T01:51:48;10.03;;;5.70;;
76094;SDS011;64821;13.710;100.604;2023-12-20T01:52:53;8.13;;;4.22;;
76094;SDS011;64821;13.710;100.604;2023-12-20T01:54:00;9.00;;;4.57;;
76094;SDS011;64821;13.710;100.604;2023-12-20T01:55:14;9.18;;;4.10;;
76094;SDS011;64821;13.710;100.604;2023-12-20T01:56:20;9.68;;;4.22;;
76094;SDS011;64821;13.710;100.604;2023-12-20T01:57:25;8.70;;;4.17;;
76094;SDS011;64821;13.710;100.604;2023-12-20T01:58:29;9.38;;;4.30;;
76094;SDS011;64821;13.710;100.604;2023-12-20T01:59:37;8.65;;;4.18;;
76094;SDS011;64821;13.710;100.604;2023-12-20T02:00:43;10.65;;;4.00;;
76094;SDS011;64821;13.710;100.604;2023-12-20T02:01:47;10.35;;;4.53;;
76094;SDS011;64821;13.710;100.604;2023-12-20T02:02:51;8.63;;;4.17;;
76094;SDS011;64821;13.710;100.604;2023-12-20T02:04:02;9.48;;;4.22;;
76094;SDS011;64821;13.710;100.604;2023-12-20T02:05:07;8.40;;;4.18;;
76094;SDS011;64821;13.710;100.604;2023-12-20T02:06:12;9.50;;;4.00;;
76094;SDS011;64821;13.710;100.604;2023-12-20T02:07:17;8.90;;;3.83;;
76094;SDS011;64821;13.710;100.604;2023-12-20T02:08:28;7.40;;;3.90;;
76094;SDS011;64821;13.710;100.604;2023-12-20T02:09:32;7.85;;;3.75;;
76094;SDS011;64821;13.710;100.604;2023-12-20T02:10:36;7.63;;;3.63;;
76094;SDS011;64821;13.710;100.604;2023-12-20T02:11:42;9.27;;;3.50;;
76094;SDS011;64821;13.710;100.604;2023-12-20T02:12:56;9.88;;;4.40;;
76094;SDS011;64821;13.710;100.604;2023-12-20T02:14:18;7.77;;;3.90;;
76094;SDS011;64821;13.710;100.604;2023-12-20T02:15:22;8.35;;;3.70;;
76094;SDS011;64821;13.710;100.604;2023-12-20T02:16:26;8.45;;;3.72;;
76094;SDS011;64821;13.710;100.604;2023-12-20T02:17:35;8.93;;;4.18;;
76094;SDS011;64821;13.710;100.604;2023-12-20T02:18:39;8.85;;;4.07;;
76094;SDS011;64821;13.710;100.604;2023-12-20T02:19:45;9.20;;;4.10;;
76094;SDS011;64821;13.710;100.604;2023-12-20T02:20:49;9.30;;;4.22;;
76094;SDS011;64821;13.710;100.604;2023-12-20T02:22:08;9.38;;;4.40;;
76094;SDS011;64821;13.710;100.604;2023-12-20T02:23:13;8.30;;;3.40;;
76094;SDS011;64821;13.710;100.604;2023-12-20T02:24:17;7.68;;;3.50;;
76094;SDS011;64821;13.710;100.604;2023-12-20T02:25:20;8.13;;;3.70;;
76094;SDS011;64821;13.710;100.604;2023-12-20T02:26:45;8.05;;;3.42;;
76094;SDS011;64821;13.710;100.604;2023-12-20T02:27:49;7.32;;;3.58;;
76094;SDS011;64821;13.710;100.604;2023-12-20T02:28:54;8.70;;;3.75;;
76094;SDS011;64821;13.710;100.604;2023-12-20T02:31:36;7.63;;;3.17;;
76094;SDS011;64821;13.710;100.604;2023-12-20T02:32:40;7.75;;;3.33;;
76094;SDS011;64821;13.710;100.604;2023-12-20T02:33:44;7.60;;;3.50;;
76094;SDS011;64821;13.710;100.604;2023-12-20T02:36:31;8.02;;;3.42;;
76094;SDS011;64821;13.710;100.604;2023-12-20T02:37:37;7.40;;;2.97;;
76094;SDS011;64821;13.710;100.604;2023-12-20T02:38:41;6.97;;;3.47;;
76094;SDS011;64821;13.710;100.604;2023-12-20T02:39:54;9.73;;;4.63;;
76094;SDS011;64821;13.710;100.604;2023-12-20T02:40:58;7.20;;;3.20;;
76094;SDS011;64821;13.710;100.604;2023-12-20T02:42:02;9.35;;;3.78;;
76094;SDS011;64821;13.710;100.604;2023-12-20T02:43:06;9.57;;;3.60;;
76094;SDS011;64821;13.710;100.604;2023-12-20T02:44:17;8.95;;;3.67;;
76094;SDS011;64821;13.710;100.604;2023-12-20T02:45:20;7.22;;;3.60;;
76094;SDS011;64821;13.710;100.604;2023-12-20T02:46:24;8.25;;;3.90;;
76094;SDS011;64821;13.710;100.604;2023-12-20T02:47:28;7.80;;;3.90;;
76094;SDS011;64821;13.710;100.604;2023-12-20T02:48:33;8.37;;;3.50;;
76094;SDS011;64821;13.710;100.604;2023-12-20T02:49:58;8.27;;;3.50;;
76094;SDS011;64821;13.710;100.604;2023-12-20T02:51:03;7.57;;;3.40;;
76094;SDS011;64821;13.710;100.604;2023-12-20T02:52:07;8.00;;;4.07;;
76094;SDS011;64821;13.710;100.604;2023-12-20T02:53:20;7.68;;;3.90;;
76094;SDS011;64821;13.710;100.604;2023-12-20T02:54:25;8.80;;;3.60;;
76094;SDS011;64821;13.710;100.604;2023-12-20T02:55:28;10.02;;;3.85;;
76094;SDS011;64821;13.710;100.604;2023-12-20T02:56:32;8.55;;;3.72;;
76094;SDS011;64821;13.710;100.604;2023-12-20T02:58:55;9.77;;;3.70;;
76094;SDS011;64821;13.710;100.604;2023-12-20T02:59:59;7.00;;;3.13;;
76094;SDS011;64821;13.710;100.604;2023-12-20T03:01:03;7.45;;;3.40;;
76094;SDS011;64821;13.710;100.604;2023-12-20T03:02:16;8.07;;;3.83;;
76094;SDS011;64821;13.710;100.604;2023-12-20T03:03:20;7.68;;;3.50;;
76094;SDS011;64821;13.710;100.604;2023-12-20T03:04:24;7.93;;;3.60;;
76094;SDS011;64821;13.710;100.604;2023-12-20T03:05:28;7.90;;;3.40;;
76094;SDS011;64821;13.710;100.604;2023-12-20T03:06:38;8.32;;;3.78;;
76094;SDS011;64821;13.710;100.604;2023-12-20T03:07:42;8.70;;;3.40;;
76094;SDS011;64821;13.710;100.604;2023-12-20T03:08:48;6.55;;;3.20;;
76094;SDS011;64821;13.710;100.604;2023-12-20T03:09:52;9.57;;;3.90;;
76094;SDS011;64821;13.710;100.604;2023-12-20T03:11:16;9.97;;;3.87;;
76094;SDS011;64821;13.710;100.604;2023-12-20T03:12:20;9.65;;;3.70;;
76094;SDS011;64821;13.710;100.604;2023-12-20T03:13:24;7.68;;;3.47;;
76094;SDS011;64821;13.710;100.604;2023-12-20T03:15:48;8.75;;;3.60;;
76094;SDS011;64821;13.710;100.604;2023-12-20T03:16:52;8.10;;;3.60;;
76094;SDS011;64821;13.710;100.604;2023-12-20T03:17:55;8.75;;;4.18;;
76094;SDS011;64821;13.710;100.604;2023-12-20T03:20:57;9.98;;;4.07;;
76094;SDS011;64821;13.710;100.604;2023-12-20T03:22:01;8.95;;;4.57;;
76094;SDS011;64821;13.710;100.604;2023-12-20T03:23:06;8.73;;;3.50;;
76094;SDS011;64821;13.710;100.604;2023-12-20T03:24:15;9.95;;;4.00;;
76094;SDS011;64821;13.710;100.604;2023-12-20T03:25:19;8.65;;;3.75;;
76094;SDS011;64821;13.710;100.604;2023-12-20T03:26:23;8.65;;;3.95;;
76094;SDS011;64821;13.710;100.604;2023-12-20T03:27:27;7.72;;;3.80;;
76094;SDS011;64821;13.710;100.604;2023-12-20T03:28:43;7.40;;;3.77;;
76094;SDS011;64821;13.710;100.604;2023-12-20T03:29:51;8.23;;;3.50;;
76094;SDS011;64821;13.710;100.604;2023-12-20T03:30:54;8.35;;;3.70;;
76094;SDS011;64821;13.710;100.604;2023-12-20T03:31:59;9.50;;;3.90;;
76094;SDS011;64821;13.710;100.604;2023-12-20T03:33:03;9.52;;;4.22;;
76094;SDS011;64821;13.710;100.604;2023-12-20T03:34:10;7.33;;;3.40;;
76094;SDS011;64821;13.710;100.604;2023-12-20T03:35:14;7.78;;;3.63;;
76094;SDS011;64821;13.710;100.604;2023-12-20T03:36:18;9.43;;;4.47;;
76094;SDS011;64821;13.710;100.604;2023-12-20T03:37:31;8.38;;;3.70;;
76094;SDS011;64821;13.710;100.604;2023-12-20T03:38:35;9.13;;;4.00;;
76094;SDS011;64821;13.710;100.604;2023-12-20T03:39:41;7.80;;;3.67;;
76094;SDS011;64821;13.710;100.604;2023-12-20T03:40:45;8.98;;;4.50;;
76094;SDS011;64821;13.710;100.604;2023-12-20T03:42:02;8.98;;;4.70;;
76094;SDS011;64821;13.710;100.604;2023-12-20T03:43:36;8.35;;;3.58;;
76094;SDS011;64821;13.710;100.604;2023-12-20T03:44:40;8.52;;;4.03;;
76094;SDS011;64821;13.710;100.604;2023-12-20T03:45:47;8.50;;;4.37;;
76094;SDS011;64821;13.710;100.604;2023-12-20T03:47:01;9.85;;;4.07;;
76094;SDS011;64821;13.710;100.604;2023-12-20T03:48:05;10.85;;;4.53;;
76094;SDS011;64821;13.710;100.604;2023-12-20T03:49:10;9.00;;;4.10;;
76094;SDS011;64821;13.710;100.604;2023-12-20T03:52:07;10.10;;;3.80;;
76094;SDS011;64821;13.710;100.604;2023-12-20T03:53:14;9.70;;;3.70;;
76094;SDS011;64821;13.710;100.604;2023-12-20T03:54:18;8.02;;;3.50;;
76094;SDS011;64821;13.710;100.604;2023-12-20T03:55:25;8.10;;;3.38;;
76094;SDS011;64821;13.710;100.604;2023-12-20T03:56:29;7.55;;;3.75;;
76094;SDS011;64821;13.710;100.604;2023-12-20T03:57:33;7.37;;;3.60;;
76094;SDS011;64821;13.710;100.604;2023-12-20T03:58:36;8.48;;;3.50;;
76094;SDS011;64821;13.710;100.604;2023-12-20T03:59:46;9.02;;;3.58;;
76094;SDS011;64821;13.710;100.604;2023-12-20T04:00:54;7.75;;;3.65;;
76094;SDS011;64821;13.710;100.604;2023-12-20T04:01:58;7.53;;;3.83;;
76094;SDS011;64821;13.710;100.604;2023-12-20T04:03:03;7.40;;;3.40;;
76094;SDS011;64821;13.710;100.604;2023-12-20T04:04:17;7.57;;;3.30;;
76094;SDS011;64821;13.710;100.604;2023-12-20T04:05:21;9.70;;;3.80;;
76094;SDS011;64821;13.710;100.604;2023-12-20T04:06:25;7.93;;;3.75;;
76094;SDS011;64821;13.710;100.604;2023-12-20T04:07:29;7.38;;;3.42;;
76094;SDS011;64821;13.710;100.604;2023-12-20T04:08:38;7.67;;;3.77;;
76094;SDS011;64821;13.710;100.604;2023-12-20T04:09:46;7.40;;;3.80;;
76094;SDS011;64821;13.710;100.604;2023-12-20T04:10:52;8.13;;;3.40;;
76094;SDS011;64821;13.710;100.604;2023-12-20T04:11:56;7.72;;;3.78;;
76094;SDS011;64821;13.710;100.604;2023-12-20T04:13:12;7.68;;;3.58;;
76094;SDS011;64821;13.710;100.604;2023-12-20T04:14:16;7.47;;;3.47;;
76094;SDS011;64821;13.710;100.604;2023-12-20T04:15:20;7.72;;;3.40;;
76094;SDS011;64821;13.710;100.604;2023-12-20T04:16:24;7.93;;;3.60;;
76094;SDS011;64821;13.710;100.604;2023-12-20T04:17:31;9.10;;;3.50;;
76094;SDS011;64821;13.710;100.604;2023-12-20T04:18:39;7.30;;;3.47;;
76094;SDS011;64821;13.710;100.604;2023-12-20T04:19:43;8.40;;;3.80;;
76094;SDS011;64821;13.710;100.604;2023-12-20T04:20:47;7.28;;;3.67;;
76094;SDS011;64821;13.710;100.604;2023-12-20T04:21:55;7.22;;;3.65;;
76094;SDS011;64821;13.710;100.604;2023-12-20T04:23:03;8.05;;;3.35;;
76094;SDS011;64821;13.710;100.604;2023-12-20T04:24:07;7.60;;;3.60;;
76094;SDS011;64821;13.710;100.604;2023-12-20T04:25:11;7.93;;;3.17;;
76094;SDS011;64821;13.710;100.604;2023-12-20T04:26:18;9.07;;;3.20;;
76094;SDS011;64821;13.710;100.604;2023-12-20T04:27:28;8.48;;;3.50;;
76094;SDS011;64821;13.710;100.604;2023-12-20T04:28:32;6.55;;;3.00;;
76094;SDS011;64821;13.710;100.604;2023-12-20T04:29:36;9.18;;;3.40;;
76094;SDS011;64821;13.710;100.604;2023-12-20T04:30:46;6.47;;;3.00;;
76094;SDS011;64821;13.710;100.604;2023-12-20T04:31:53;6.88;;;3.22;;
76094;SDS011;64821;13.710;100.604;2023-12-20T04:32:57;7.72;;;2.95;;
76094;SDS011;64821;13.710;100.604;2023-12-20T04:34:01;8.25;;;3.30;;
76094;SDS011;64821;13.710;100.604;2023-12-20T04:35:05;8.13;;;3.60;;
76094;SDS011;64821;13.710;100.604;2023-12-20T04:36:09;7.00;;;3.15;;
76094;SDS011;64821;13.710;100.604;2023-12-20T04:37:13;7.68;;;3.63;;
76094;SDS011;64821;13.710;100.604;2023-12-20T04:38:17;7.00;;;3.33;;
76094;SDS011;64821;13.710;100.604;2023-12-20T04:39:21;7.28;;;3.20;;
76094;SDS011;64821;13.710;100.604;2023-12-20T04:40:25;7.03;;;3.38;;
76094;SDS011;64821;13.710;100.604;2023-12-20T04:41:31;6.97;;;3.40;;
76094;SDS011;64821;13.710;100.604;2023-12-20T04:42:35;6.43;;;3.10;;
76094;SDS011;64821;13.710;100.604;2023-12-20T04:43:39;6.82;;;3.38;;
76094;SDS011;64821;13.710;100.604;2023-12-20T04:44:43;7.00;;;3.40;;
76094;SDS011;64821;13.710;100.604;2023-12-20T04:45:47;7.72;;;3.22;;
76094;SDS011;64821;13.710;100.604;2023-12-20T04:46:51;7.97;;;3.30;;
76094;SDS011;64821;13.710;100.604;2023-12-20T04:47:55;7.30;;;3.20;;
76094;SDS011;64821;13.710;100.604;2023-12-20T04:48:59;7.38;;;3.53;;
76094;SDS011;64821;13.710;100.604;2023-12-20T04:50:03;7.03;;;3.10;;
76094;SDS011;64821;13.710;100.604;2023-12-20T04:51:09;8.65;;;3.55;;
76094;SDS011;64821;13.710;100.604;2023-12-20T04:52:13;6.90;;;3.00;;
76094;SDS011;64821;13.710;100.604;2023-12-20T04:53:17;7.05;;;3.00;;
76094;SDS011;64821;13.710;100.604;2023-12-20T04:54:21;7.90;;;3.60;;
76094;SDS011;64821;13.710;100.604;2023-12-20T04:55:25;7.32;;;3.45;;
76094;SDS011;64821;13.710;100.604;2023-12-20T04:56:28;7.00;;;3.33;;
76094;SDS011;64821;13.710;100.604;2023-12-20T04:57:34;7.37;;;3.03;;
76094;SDS011;64821;13.710;100.604;2023-12-20T04:58:38;7.75;;;3.00;;
76094;SDS011;64821;13.710;100.604;2023-12-20T04:59:42;7.32;;;3.67;;
76094;SDS011;64821;13.710;100.604;2023-12-20T05:00:46;8.18;;;3.60;;
76094;SDS011;64821;13.710;100.604;2023-12-20T05:01:50;6.50;;;3.10;;
76094;SDS011;64821;13.710;100.604;2023-12-20T05:02:54;8.33;;;3.37;;
76094;SDS011;64821;13.710;100.604;2023-12-20T05:03:58;7.43;;;3.50;;
76094;SDS011;64821;13.710;100.604;2023-12-20T05:05:02;7.50;;;3.42;;
76094;SDS011;64821;13.710;100.604;2023-12-20T05:06:06;6.60;;;3.20;;
76094;SDS011;64821;13.710;100.604;2023-12-20T05:07:10;8.60;;;3.80;;
76094;SDS011;64821;13.710;100.604;2023-12-20T05:08:14;7.23;;;3.43;;
76094;SDS011;64821;13.710;100.604;2023-12-20T05:09:19;7.30;;;3.25;;
76094;SDS011;64821;13.710;100.604;2023-12-20T05:10:22;7.22;;;3.50;;
76094;SDS011;64821;13.710;100.604;2023-12-20T05:11:26;6.68;;;3.15;;
76094;SDS011;64821;13.710;100.604;2023-12-20T05:12:33;6.75;;;3.13;;
76094;SDS011;64821;13.710;100.604;2023-12-20T05:13:36;6.37;;;2.87;;
76094;SDS011;64821;13.710;100.604;2023-12-20T05:14:51;5.80;;;2.75;;
76094;SDS011;64821;13.710;100.604;2023-12-20T05:15:55;7.68;;;3.22;;
76094;SDS011;64821;13.710;100.604;2023-12-20T05:16:59;8.13;;;2.90;;
76094;SDS011;64821;13.710;100.604;2023-12-20T05:18:03;8.23;;;3.40;;
76094;SDS011;64821;13.710;100.604;2023-12-20T05:19:10;6.83;;;3.13;;
76094;SDS011;64821;13.710;100.604;2023-12-20T05:20:17;7.13;;;3.33;;
76094;SDS011;64821;13.710;100.604;2023-12-20T05:21:21;7.28;;;3.10;;
76094;SDS011;64821;13.710;100.604;2023-12-20T05:22:25;6.80;;;3.42;;
76094;SDS011;64821;13.710;100.604;2023-12-20T05:23:29;7.60;;;3.40;;
76094;SDS011;64821;13.710;100.604;2023-12-20T05:24:33;7.37;;;3.17;;
76094;SDS011;64821;13.710;100.604;2023-12-20T05:25:37;6.20;;;2.90;;
76094;SDS011;64821;13.710;100.604;2023-12-20T05:26:41;7.18;;;3.10;;
76094;SDS011;64821;13.710;100.604;2023-12-20T05:27:47;8.27;;;3.63;;
76094;SDS011;64821;13.710;100.604;2023-12-20T05:28:51;8.57;;;3.60;;
76094;SDS011;64821;13.710;100.604;2023-12-20T05:29:55;8.27;;;3.07;;
76094;SDS011;64821;13.710;100.604;2023-12-20T05:31:00;6.53;;;3.10;;
76094;SDS011;64821;13.710;100.604;2023-12-20T05:32:04;6.78;;;3.35;;
76094;SDS011;64821;13.710;100.604;2023-12-20T05:33:08;6.88;;;3.40;;
76094;SDS011;64821;13.710;100.604;2023-12-20T05:34:12;8.43;;;3.22;;
76094;SDS011;64821;13.710;100.604;2023-12-20T05:35:16;7.10;;;3.40;;
76094;SDS011;64821;13.710;100.604;2023-12-20T05:36:20;6.82;;;3.13;;
76094;SDS011;64821;13.710;100.604;2023-12-20T05:37:24;7.18;;;3.40;;
76094;SDS011;64821;13.710;100.604;2023-12-20T05:38:28;7.78;;;3.40;;
76094;SDS011;64821;13.710;100.604;2023-12-20T05:39:32;8.50;;;3.75;;
76094;SDS011;64821;13.710;100.604;2023-12-20T05:40:36;7.93;;;3.87;;
76094;SDS011;64821;13.710;100.604;2023-12-20T05:41:40;9.00;;;3.65;;
76094;SDS011;64821;13.710;100.604;2023-12-20T05:42:44;10.52;;;3.95;;
76094;SDS011;64821;13.710;100.604;2023-12-20T05:43:49;7.57;;;3.50;;
76094;SDS011;64821;13.710;100.604;2023-12-20T05:44:53;8.00;;;3.47;;
76094;SDS011;64821;13.710;100.604;2023-12-20T05:46:00;12.23;;;4.90;;
76094;SDS011;64821;13.710;100.604;2023-12-20T05:47:04;8.02;;;3.75;;
76094;SDS011;64821;13.710;100.604;2023-12-20T05:48:08;6.82;;;3.20;;
76094;SDS011;64821;13.710;100.604;2023-12-20T05:49:12;7.82;;;3.67;;
76094;SDS011;64821;13.710;100.604;2023-12-20T05:50:16;8.10;;;3.33;;
76094;SDS011;64821;13.710;100.604;2023-12-20T05:51:20;7.23;;;3.50;;
76094;SDS011;64821;13.710;100.604;2023-12-20T05:52:24;8.70;;;3.78;;
76094;SDS011;64821;13.710;100.604;2023-12-20T05:53:28;7.22;;;3.15;;
76094;SDS011;64821;13.710;100.604;2023-12-20T05:54:32;8.10;;;3.58;;
76094;SDS011;64821;13.710;100.604;2023-12-20T05:55:36;7.35;;;3.78;;
76094;SDS011;64821;13.710;100.604;2023-12-20T05:58:01;7.47;;;3.20;;
76094;SDS011;64821;13.710;100.604;2023-12-20T05:59:06;8.75;;;3.40;;
76094;SDS011;64821;13.710;100.604;2023-12-20T06:00:11;8.07;;;3.10;;
76094;SDS011;64821;13.710;100.604;2023-12-20T06:01:16;6.32;;;2.90;;
76094;SDS011;64821;13.710;100.604;2023-12-20T06:02:20;7.13;;;3.30;;
76094;SDS011;64821;13.710;100.604;2023-12-20T06:03:24;7.25;;;3.22;;
76094;SDS011;64821;13.710;100.604;2023-12-20T06:04:28;8.15;;;3.58;;
76094;SDS011;64821;13.710;100.604;2023-12-20T06:05:32;6.90;;;3.38;;
76094;SDS011;64821;13.710;100.604;2023-12-20T06:06:40;7.53;;;3.65;;
76094;SDS011;64821;13.710;100.604;2023-12-20T06:07:44;8.37;;;4.07;;
76094;SDS011;64821;13.710;100.604;2023-12-20T06:08:49;7.07;;;3.30;;
76094;SDS011;64821;13.710;100.604;2023-12-20T06:09:53;7.50;;;3.58;;
76094;SDS011;64821;13.710;100.604;2023-12-20T06:10:57;7.07;;;3.20;;
76094;SDS011;64821;13.710;100.604;2023-12-20T06:12:01;8.75;;;3.60;;
76094;SDS011;64821;13.710;100.604;2023-12-20T06:13:05;6.87;;;3.30;;
76094;SDS011;64821;13.710;100.604;2023-12-20T06:14:10;8.23;;;3.70;;
76094;SDS011;64821;13.710;100.604;2023-12-20T06:15:14;7.10;;;3.70;;
76094;SDS011;64821;13.710;100.604;2023-12-20T06:16:18;7.93;;;3.88;;
76094;SDS011;64821;13.710;100.604;2023-12-20T06:17:23;7.10;;;3.30;;
76094;SDS011;64821;13.710;100.604;2023-12-20T06:18:27;6.70;;;3.37;;
76094;SDS011;64821;13.710;100.604;2023-12-20T06:19:31;7.57;;;3.40;;
76094;SDS011;64821;13.710;100.604;2023-12-20T06:20:35;8.15;;;3.75;;
76094;SDS011;64821;13.710;100.604;2023-12-20T06:21:39;6.93;;;3.50;;
76094;SDS011;64821;13.710;100.604;2023-12-20T06:22:46;7.18;;;3.50;;
76094;SDS011;64821;13.710;100.604;2023-12-20T06:23:50;8.37;;;3.60;;
76094;SDS011;64821;13.710;100.604;2023-12-20T06:24:54;6.90;;;3.40;;
76094;SDS011;64821;13.710;100.604;2023-12-20T06:25:58;8.43;;;3.78;;
76094;SDS011;64821;13.710;100.604;2023-12-20T06:27:02;8.63;;;4.30;;
76094;SDS011;64821;13.710;100.604;2023-12-20T06:28:07;8.82;;;4.78;;
76094;SDS011;64821;13.710;100.604;2023-12-20T06:29:12;10.63;;;4.70;;
76094;SDS011;64821;13.710;100.604;2023-12-20T06:30:16;8.55;;;4.80;;
76094;SDS011;64821;13.710;100.604;2023-12-20T06:31:20;9.65;;;5.18;;
76094;SDS011;64821;13.710;100.604;2023-12-20T06:32:24;10.00;;;5.00;;
76094;SDS011;64821;13.710;100.604;2023-12-20T06:33:28;9.75;;;5.03;;
76094;SDS011;64821;13.710;100.604;2023-12-20T06:34:32;8.43;;;4.67;;
76094;SDS011;64821;13.710;100.604;2023-12-20T06:35:36;11.63;;;4.90;;
76094;SDS011;64821;13.710;100.604;2023-12-20T06:36:40;11.00;;;5.68;;
76094;SDS011;64821;13.710;100.604;2023-12-20T06:37:44;8.48;;;5.00;;
76094;SDS011;64821;13.710;100.604;2023-12-20T06:38:48;10.38;;;5.32;;
76094;SDS011;64821;13.710;100.604;2023-12-20T06:39:52;8.90;;;5.50;;
76094;SDS011;64821;13.710;100.604;2023-12-20T06:40:56;9.27;;;4.93;;